sensor_id;sensor_type;location;lat;lon;timestamp;P1;durP1;ratioP1;P2;durP2;ratioP2
38312;SDS011;24114;52.260;6.714;2023-01-29T00:01:09;25.60;;;21.77;;
38312;SDS011;24114;52.260;6.714;2023-01-29T00:03:37;25.45;;;21.70;;
38312;SDS011;24114;52.260;6.714;2023-01-29T00:06:05;26.25;;;22.15;;
38312;SDS011;24114;52.260;6.714;2023-01-29T00:08:35;25.63;;;22.67;;
38312;SDS011;24114;52.260;6.714;2023-01-29T00:11:04;25.70;;;22.30;;
38312;SDS011;24114;52.260;6.714;2023-01-29T00:13:32;25.57;;;22.17;;
38312;SDS011;24114;52.260;6.714;2023-01-29T00:16:01;26.70;;;23.20;;
38312;SDS011;24114;52.260;6.714;2023-01-29T00:18:29;24.25;;;21.42;;
38312;SDS011;24114;52.260;6.714;2023-01-29T00:20:57;26.52;;;22.90;;
38312;SDS011;24114;52.260;6.714;2023-01-29T00:23:25;24.60;;;21.85;;
38312;SDS011;24114;52.260;6.714;2023-01-29T00:25:58;25.65;;;22.10;;
38312;SDS011;24114;52.260;6.714;2023-01-29T00:28:25;25.42;;;21.80;;
38312;SDS011;24114;52.260;6.714;2023-01-29T00:30:53;24.90;;;21.20;;
38312;SDS011;24114;52.260;6.714;2023-01-29T00:33:21;25.98;;;21.98;;
38312;SDS011;24114;52.260;6.714;2023-01-29T00:35:49;26.50;;;21.63;;
38312;SDS011;24114;52.260;6.714;2023-01-29T00:38:17;28.08;;;22.55;;
38312;SDS011;24114;52.260;6.714;2023-01-29T00:40:44;27.65;;;22.25;;
38312;SDS011;24114;52.260;6.714;2023-01-29T00:43:27;25.95;;;22.52;;
38312;SDS011;24114;52.260;6.714;2023-01-29T00:46:12;24.60;;;21.13;;
38312;SDS011;24114;52.260;6.714;2023-01-29T00:48:40;26.15;;;22.33;;
38312;SDS011;24114;52.260;6.714;2023-01-29T00:51:08;26.58;;;22.27;;
38312;SDS011;24114;52.260;6.714;2023-01-29T00:53:36;25.33;;;21.85;;
38312;SDS011;24114;52.260;6.714;2023-01-29T00:56:04;25.65;;;21.27;;
38312;SDS011;24114;52.260;6.714;2023-01-29T00:58:33;25.95;;;21.80;;
38312;SDS011;24114;52.260;6.714;2023-01-29T01:01:01;25.42;;;21.40;;
38312;SDS011;24114;52.260;6.714;2023-01-29T01:03:29;26.67;;;22.05;;
38312;SDS011;24114;52.260;6.714;2023-01-29T01:06:03;25.42;;;22.27;;
38312;SDS011;24114;52.260;6.714;2023-01-29T01:08:32;27.02;;;21.77;;
38312;SDS011;24114;52.260;6.714;2023-01-29T01:11:17;26.67;;;22.15;;
38312;SDS011;24114;52.260;6.714;2023-01-29T01:13:46;27.00;;;22.57;;
38312;SDS011;24114;52.260;6.714;2023-01-29T01:16:15;25.48;;;21.38;;
38312;SDS011;24114;52.260;6.714;2023-01-29T01:18:44;26.60;;;21.45;;
38312;SDS011;24114;52.260;6.714;2023-01-29T01:21:11;24.15;;;20.98;;
38312;SDS011;24114;52.260;6.714;2023-01-29T01:23:39;26.85;;;22.30;;
38312;SDS011;24114;52.260;6.714;2023-01-29T01:26:07;25.80;;;21.53;;
38312;SDS011;24114;52.260;6.714;2023-01-29T01:28:36;26.53;;;21.70;;
38312;SDS011;24114;52.260;6.714;2023-01-29T01:31:09;25.80;;;22.15;;
38312;SDS011;24114;52.260;6.714;2023-01-29T01:33:38;26.25;;;22.27;;
38312;SDS011;24114;52.260;6.714;2023-01-29T01:36:07;25.85;;;22.17;;
38312;SDS011;24114;52.260;6.714;2023-01-29T01:38:35;25.70;;;21.52;;
38312;SDS011;24114;52.260;6.714;2023-01-29T01:41:10;26.65;;;22.50;;
38312;SDS011;24114;52.260;6.714;2023-01-29T01:43:48;24.60;;;21.63;;
38312;SDS011;24114;52.260;6.714;2023-01-29T01:46:18;26.27;;;22.10;;
38312;SDS011;24114;52.260;6.714;2023-01-29T01:48:47;25.88;;;21.65;;
38312;SDS011;24114;52.260;6.714;2023-01-29T01:51:19;26.77;;;21.90;;
38312;SDS011;24114;52.260;6.714;2023-01-29T01:53:49;25.20;;;21.50;;
38312;SDS011;24114;52.260;6.714;2023-01-29T01:56:20;26.87;;;21.90;;
38312;SDS011;24114;52.260;6.714;2023-01-29T01:58:50;25.77;;;21.30;;
38312;SDS011;24114;52.260;6.714;2023-01-29T02:01:22;25.42;;;21.73;;
38312;SDS011;24114;52.260;6.714;2023-01-29T02:03:55;28.55;;;22.30;;
38312;SDS011;24114;52.260;6.714;2023-01-29T02:06:41;25.02;;;21.02;;
38312;SDS011;24114;52.260;6.714;2023-01-29T02:09:29;25.43;;;21.10;;
38312;SDS011;24114;52.260;6.714;2023-01-29T02:11:59;26.33;;;22.08;;
38312;SDS011;24114;52.260;6.714;2023-01-29T02:14:28;28.17;;;22.98;;
38312;SDS011;24114;52.260;6.714;2023-01-29T02:16:59;30.92;;;21.88;;
38312;SDS011;24114;52.260;6.714;2023-01-29T02:19:31;26.73;;;21.73;;
38312;SDS011;24114;52.260;6.714;2023-01-29T02:22:07;25.88;;;21.55;;
38312;SDS011;24114;52.260;6.714;2023-01-29T02:25:00;27.30;;;22.40;;
38312;SDS011;24114;52.260;6.714;2023-01-29T02:27:40;25.65;;;22.08;;
38312;SDS011;24114;52.260;6.714;2023-01-29T02:30:30;25.63;;;21.88;;
38312;SDS011;24114;52.260;6.714;2023-01-29T02:33:03;26.55;;;22.63;;
38312;SDS011;24114;52.260;6.714;2023-01-29T02:35:37;25.25;;;21.05;;
38312;SDS011;24114;52.260;6.714;2023-01-29T02:38:10;27.20;;;22.42;;
38312;SDS011;24114;52.260;6.714;2023-01-29T02:40:40;24.65;;;21.25;;
38312;SDS011;24114;52.260;6.714;2023-01-29T02:43:16;25.65;;;21.60;;
38312;SDS011;24114;52.260;6.714;2023-01-29T02:45:52;25.37;;;22.20;;
38312;SDS011;24114;52.260;6.714;2023-01-29T02:48:28;25.90;;;21.88;;
38312;SDS011;24114;52.260;6.714;2023-01-29T02:51:00;25.30;;;21.38;;
38312;SDS011;24114;52.260;6.714;2023-01-29T02:53:31;25.35;;;21.25;;
38312;SDS011;24114;52.260;6.714;2023-01-29T02:56:02;25.83;;;21.30;;
38312;SDS011;24114;52.260;6.714;2023-01-29T02:58:38;26.25;;;22.05;;
38312;SDS011;24114;52.260;6.714;2023-01-29T03:01:08;28.27;;;22.30;;
38312;SDS011;24114;52.260;6.714;2023-01-29T03:03:39;26.33;;;21.75;;
38312;SDS011;24114;52.260;6.714;2023-01-29T03:06:10;25.08;;;21.83;;
38312;SDS011;24114;52.260;6.714;2023-01-29T03:08:46;25.30;;;21.60;;
38312;SDS011;24114;52.260;6.714;2023-01-29T03:11:16;25.75;;;21.50;;
38312;SDS011;24114;52.260;6.714;2023-01-29T03:13:46;25.70;;;22.08;;
38312;SDS011;24114;52.260;6.714;2023-01-29T03:16:18;25.00;;;21.42;;
38312;SDS011;24114;52.260;6.714;2023-01-29T03:18:49;25.27;;;21.55;;
38312;SDS011;24114;52.260;6.714;2023-01-29T03:21:24;24.92;;;21.40;;
38312;SDS011;24114;52.260;6.714;2023-01-29T03:24:13;24.73;;;20.80;;
38312;SDS011;24114;52.260;6.714;2023-01-29T03:27:00;26.33;;;21.90;;
38312;SDS011;24114;52.260;6.714;2023-01-29T03:29:48;26.25;;;21.77;;
38312;SDS011;24114;52.260;6.714;2023-01-29T03:32:34;27.38;;;21.88;;
38312;SDS011;24114;52.260;6.714;2023-01-29T03:35:04;25.83;;;21.63;;
38312;SDS011;24114;52.260;6.714;2023-01-29T03:37:34;25.25;;;21.73;;
38312;SDS011;24114;52.260;6.714;2023-01-29T03:40:04;26.67;;;22.08;;
38312;SDS011;24114;52.260;6.714;2023-01-29T03:42:36;26.17;;;21.52;;
38312;SDS011;24114;52.260;6.714;2023-01-29T03:45:13;26.60;;;21.80;;
38312;SDS011;24114;52.260;6.714;2023-01-29T03:47:43;26.92;;;22.30;;
38312;SDS011;24114;52.260;6.714;2023-01-29T03:50:16;25.17;;;21.73;;
38312;SDS011;24114;52.260;6.714;2023-01-29T03:52:55;26.55;;;21.77;;
38312;SDS011;24114;52.260;6.714;2023-01-29T03:55:29;28.40;;;22.80;;
38312;SDS011;24114;52.260;6.714;2023-01-29T03:58:03;26.85;;;22.85;;
38312;SDS011;24114;52.260;6.714;2023-01-29T04:00:35;27.45;;;23.40;;
38312;SDS011;24114;52.260;6.714;2023-01-29T04:03:05;26.58;;;21.85;;
38312;SDS011;24114;52.260;6.714;2023-01-29T04:05:39;27.40;;;23.05;;
38312;SDS011;24114;52.260;6.714;2023-01-29T04:08:14;28.85;;;22.77;;
38312;SDS011;24114;52.260;6.714;2023-01-29T04:10:47;26.70;;;22.40;;
38312;SDS011;24114;52.260;6.714;2023-01-29T04:13:16;27.10;;;22.33;;
38312;SDS011;24114;52.260;6.714;2023-01-29T04:15:46;31.17;;;22.65;;
38312;SDS011;24114;52.260;6.714;2023-01-29T04:18:16;27.93;;;23.07;;
38312;SDS011;24114;52.260;6.714;2023-01-29T04:20:44;28.25;;;22.55;;
38312;SDS011;24114;52.260;6.714;2023-01-29T04:23:20;28.65;;;22.80;;
38312;SDS011;24114;52.260;6.714;2023-01-29T04:25:52;24.90;;;21.65;;
38312;SDS011;24114;52.260;6.714;2023-01-29T04:28:22;27.85;;;23.23;;
38312;SDS011;24114;52.260;6.714;2023-01-29T04:30:57;28.02;;;23.25;;
38312;SDS011;24114;52.260;6.714;2023-01-29T04:33:28;27.60;;;22.73;;
38312;SDS011;24114;52.260;6.714;2023-01-29T04:36:06;26.50;;;22.33;;
38312;SDS011;24114;52.260;6.714;2023-01-29T04:38:46;28.30;;;23.60;;
38312;SDS011;24114;52.260;6.714;2023-01-29T04:41:20;29.83;;;23.45;;
38312;SDS011;24114;52.260;6.714;2023-01-29T04:43:53;28.25;;;22.58;;
38312;SDS011;24114;52.260;6.714;2023-01-29T04:46:28;27.58;;;22.70;;
38312;SDS011;24114;52.260;6.714;2023-01-29T04:49:07;27.97;;;22.87;;
38312;SDS011;24114;52.260;6.714;2023-01-29T04:51:42;25.63;;;21.52;;
38312;SDS011;24114;52.260;6.714;2023-01-29T04:54:17;26.75;;;22.77;;
38312;SDS011;24114;52.260;6.714;2023-01-29T04:56:52;26.85;;;22.15;;
38312;SDS011;24114;52.260;6.714;2023-01-29T04:59:24;27.05;;;21.92;;
38312;SDS011;24114;52.260;6.714;2023-01-29T05:01:58;28.08;;;23.27;;
38312;SDS011;24114;52.260;6.714;2023-01-29T05:04:28;28.05;;;23.13;;
38312;SDS011;24114;52.260;6.714;2023-01-29T05:07:00;29.23;;;23.05;;
38312;SDS011;24114;52.260;6.714;2023-01-29T05:09:29;27.48;;;22.63;;
38312;SDS011;24114;52.260;6.714;2023-01-29T05:11:58;26.00;;;22.25;;
38312;SDS011;24114;52.260;6.714;2023-01-29T05:14:27;27.10;;;22.55;;
38312;SDS011;24114;52.260;6.714;2023-01-29T05:16:55;25.95;;;22.55;;
38312;SDS011;24114;52.260;6.714;2023-01-29T05:19:26;27.20;;;22.90;;
38312;SDS011;24114;52.260;6.714;2023-01-29T05:21:53;27.42;;;22.88;;
38312;SDS011;24114;52.260;6.714;2023-01-29T05:24:22;25.70;;;21.95;;
38312;SDS011;24114;52.260;6.714;2023-01-29T05:26:52;27.95;;;23.20;;
38312;SDS011;24114;52.260;6.714;2023-01-29T05:29:38;25.85;;;22.23;;
38312;SDS011;24114;52.260;6.714;2023-01-29T05:32:10;26.77;;;22.25;;
38312;SDS011;24114;52.260;6.714;2023-01-29T05:34:38;28.13;;;23.70;;
38312;SDS011;24114;52.260;6.714;2023-01-29T05:37:05;28.60;;;22.70;;
38312;SDS011;24114;52.260;6.714;2023-01-29T05:39:33;29.27;;;22.40;;
38312;SDS011;24114;52.260;6.714;2023-01-29T05:42:01;26.05;;;22.35;;
38312;SDS011;24114;52.260;6.714;2023-01-29T05:44:28;24.52;;;21.23;;
38312;SDS011;24114;52.260;6.714;2023-01-29T05:46:56;25.92;;;22.30;;
38312;SDS011;24114;52.260;6.714;2023-01-29T05:49:25;25.95;;;22.25;;
38312;SDS011;24114;52.260;6.714;2023-01-29T05:51:53;26.38;;;22.73;;
38312;SDS011;24114;52.260;6.714;2023-01-29T05:54:21;27.48;;;22.38;;
38312;SDS011;24114;52.260;6.714;2023-01-29T05:56:48;30.27;;;23.58;;
38312;SDS011;24114;52.260;6.714;2023-01-29T05:59:16;28.00;;;22.95;;
38312;SDS011;24114;52.260;6.714;2023-01-29T06:01:44;27.75;;;22.65;;
38312;SDS011;24114;52.260;6.714;2023-01-29T06:04:11;27.70;;;22.70;;
38312;SDS011;24114;52.260;6.714;2023-01-29T06:06:41;27.65;;;22.77;;
38312;SDS011;24114;52.260;6.714;2023-01-29T06:09:09;28.73;;;23.58;;
38312;SDS011;24114;52.260;6.714;2023-01-29T06:11:36;28.23;;;22.58;;
38312;SDS011;24114;52.260;6.714;2023-01-29T06:14:04;29.08;;;22.98;;
38312;SDS011;24114;52.260;6.714;2023-01-29T06:16:32;28.88;;;23.98;;
38312;SDS011;24114;52.260;6.714;2023-01-29T06:19:00;27.23;;;22.63;;
38312;SDS011;24114;52.260;6.714;2023-01-29T06:21:27;28.20;;;23.63;;
38312;SDS011;24114;52.260;6.714;2023-01-29T06:23:57;26.75;;;22.65;;
38312;SDS011;24114;52.260;6.714;2023-01-29T06:26:24;28.33;;;23.23;;
38312;SDS011;24114;52.260;6.714;2023-01-29T06:28:52;26.88;;;22.98;;
38312;SDS011;24114;52.260;6.714;2023-01-29T06:31:20;27.25;;;22.67;;
38312;SDS011;24114;52.260;6.714;2023-01-29T06:34:03;28.73;;;23.13;;
38312;SDS011;24114;52.260;6.714;2023-01-29T06:36:31;27.27;;;22.63;;
38312;SDS011;24114;52.260;6.714;2023-01-29T06:39:01;29.23;;;23.00;;
38312;SDS011;24114;52.260;6.714;2023-01-29T06:41:29;28.17;;;22.50;;
38312;SDS011;24114;52.260;6.714;2023-01-29T06:43:56;27.92;;;23.48;;
38312;SDS011;24114;52.260;6.714;2023-01-29T06:46:24;27.70;;;22.93;;
38312;SDS011;24114;52.260;6.714;2023-01-29T06:48:52;27.70;;;23.10;;
38312;SDS011;24114;52.260;6.714;2023-01-29T06:51:20;26.95;;;22.23;;
38312;SDS011;24114;52.260;6.714;2023-01-29T06:53:48;27.02;;;22.48;;
38312;SDS011;24114;52.260;6.714;2023-01-29T06:56:17;28.50;;;23.05;;
38312;SDS011;24114;52.260;6.714;2023-01-29T06:58:45;28.23;;;23.67;;
38312;SDS011;24114;52.260;6.714;2023-01-29T07:01:12;28.30;;;23.17;;
38312;SDS011;24114;52.260;6.714;2023-01-29T07:03:59;27.98;;;22.90;;
38312;SDS011;24114;52.260;6.714;2023-01-29T07:06:28;29.20;;;24.15;;
38312;SDS011;24114;52.260;6.714;2023-01-29T07:08:56;27.60;;;22.83;;
38312;SDS011;24114;52.260;6.714;2023-01-29T07:11:25;28.23;;;22.98;;
38312;SDS011;24114;52.260;6.714;2023-01-29T07:13:53;28.00;;;23.07;;
38312;SDS011;24114;52.260;6.714;2023-01-29T07:16:21;26.98;;;22.05;;
38312;SDS011;24114;52.260;6.714;2023-01-29T07:18:50;27.17;;;22.95;;
38312;SDS011;24114;52.260;6.714;2023-01-29T07:21:17;29.27;;;23.70;;
38312;SDS011;24114;52.260;6.714;2023-01-29T07:23:45;29.42;;;23.55;;
38312;SDS011;24114;52.260;6.714;2023-01-29T07:26:13;28.40;;;23.17;;
38312;SDS011;24114;52.260;6.714;2023-01-29T07:28:42;28.53;;;23.27;;
38312;SDS011;24114;52.260;6.714;2023-01-29T07:31:11;27.90;;;23.15;;
38312;SDS011;24114;52.260;6.714;2023-01-29T07:33:39;27.77;;;23.60;;
38312;SDS011;24114;52.260;6.714;2023-01-29T07:36:09;30.48;;;24.88;;
38312;SDS011;24114;52.260;6.714;2023-01-29T07:38:38;31.08;;;24.85;;
38312;SDS011;24114;52.260;6.714;2023-01-29T07:41:05;29.13;;;24.63;;
38312;SDS011;24114;52.260;6.714;2023-01-29T07:43:33;29.92;;;25.05;;
38312;SDS011;24114;52.260;6.714;2023-01-29T07:46:03;31.17;;;24.98;;
38312;SDS011;24114;52.260;6.714;2023-01-29T07:48:31;30.25;;;25.35;;
38312;SDS011;24114;52.260;6.714;2023-01-29T07:50:59;29.95;;;25.42;;
38312;SDS011;24114;52.260;6.714;2023-01-29T07:53:26;31.38;;;25.45;;
38312;SDS011;24114;52.260;6.714;2023-01-29T07:55:54;30.60;;;25.20;;
38312;SDS011;24114;52.260;6.714;2023-01-29T07:58:22;29.95;;;25.05;;
38312;SDS011;24114;52.260;6.714;2023-01-29T08:00:50;31.13;;;25.93;;
38312;SDS011;24114;52.260;6.714;2023-01-29T08:03:19;31.73;;;25.95;;
38312;SDS011;24114;52.260;6.714;2023-01-29T08:05:47;32.17;;;26.65;;
38312;SDS011;24114;52.260;6.714;2023-01-29T08:08:15;29.90;;;25.20;;
38312;SDS011;24114;52.260;6.714;2023-01-29T08:10:44;30.15;;;25.25;;
38312;SDS011;24114;52.260;6.714;2023-01-29T08:13:12;31.55;;;26.10;;
38312;SDS011;24114;52.260;6.714;2023-01-29T08:15:41;31.65;;;25.63;;
38312;SDS011;24114;52.260;6.714;2023-01-29T08:18:09;31.75;;;26.45;;
38312;SDS011;24114;52.260;6.714;2023-01-29T08:20:38;31.23;;;25.42;;
38312;SDS011;24114;52.260;6.714;2023-01-29T08:23:06;30.73;;;25.85;;
38312;SDS011;24114;52.260;6.714;2023-01-29T08:25:40;30.13;;;24.85;;
38312;SDS011;24114;52.260;6.714;2023-01-29T08:28:08;31.70;;;24.80;;
38312;SDS011;24114;52.260;6.714;2023-01-29T08:30:37;31.10;;;26.52;;
38312;SDS011;24114;52.260;6.714;2023-01-29T08:33:05;31.42;;;25.52;;
38312;SDS011;24114;52.260;6.714;2023-01-29T08:35:32;32.85;;;26.23;;
38312;SDS011;24114;52.260;6.714;2023-01-29T08:38:02;29.60;;;25.10;;
38312;SDS011;24114;52.260;6.714;2023-01-29T08:40:32;30.98;;;25.45;;
38312;SDS011;24114;52.260;6.714;2023-01-29T08:43:00;31.35;;;26.02;;
38312;SDS011;24114;52.260;6.714;2023-01-29T08:45:32;31.23;;;26.00;;
38312;SDS011;24114;52.260;6.714;2023-01-29T08:48:01;33.03;;;25.85;;
38312;SDS011;24114;52.260;6.714;2023-01-29T08:50:29;29.25;;;25.15;;
38312;SDS011;24114;52.260;6.714;2023-01-29T08:52:57;33.05;;;25.55;;
38312;SDS011;24114;52.260;6.714;2023-01-29T08:55:27;30.90;;;24.77;;
38312;SDS011;24114;52.260;6.714;2023-01-29T08:57:55;32.30;;;25.25;;
38312;SDS011;24114;52.260;6.714;2023-01-29T09:00:23;31.10;;;24.42;;
38312;SDS011;24114;52.260;6.714;2023-01-29T09:02:51;31.08;;;25.80;;
38312;SDS011;24114;52.260;6.714;2023-01-29T09:05:19;30.63;;;25.35;;
38312;SDS011;24114;52.260;6.714;2023-01-29T09:07:46;29.63;;;24.55;;
38312;SDS011;24114;52.260;6.714;2023-01-29T09:10:14;30.63;;;24.90;;
38312;SDS011;24114;52.260;6.714;2023-01-29T09:12:44;29.65;;;24.70;;
38312;SDS011;24114;52.260;6.714;2023-01-29T09:15:12;32.35;;;25.13;;
38312;SDS011;24114;52.260;6.714;2023-01-29T09:17:40;30.20;;;24.48;;
38312;SDS011;24114;52.260;6.714;2023-01-29T09:20:08;31.17;;;24.85;;
38312;SDS011;24114;52.260;6.714;2023-01-29T09:22:36;28.98;;;24.77;;
38312;SDS011;24114;52.260;6.714;2023-01-29T09:25:05;31.38;;;25.08;;
38312;SDS011;24114;52.260;6.714;2023-01-29T09:27:33;30.50;;;25.37;;
38312;SDS011;24114;52.260;6.714;2023-01-29T09:30:03;29.05;;;24.20;;
38312;SDS011;24114;52.260;6.714;2023-01-29T09:32:32;30.90;;;24.77;;
38312;SDS011;24114;52.260;6.714;2023-01-29T09:35:20;31.37;;;25.43;;
38312;SDS011;24114;52.260;6.714;2023-01-29T09:37:48;29.60;;;24.55;;
38312;SDS011;24114;52.260;6.714;2023-01-29T09:40:19;28.80;;;24.48;;
38312;SDS011;24114;52.260;6.714;2023-01-29T09:42:52;28.70;;;24.05;;
38312;SDS011;24114;52.260;6.714;2023-01-29T09:45:23;35.25;;;28.27;;
38312;SDS011;24114;52.260;6.714;2023-01-29T09:47:54;29.95;;;25.10;;
38312;SDS011;24114;52.260;6.714;2023-01-29T09:50:25;30.25;;;26.10;;
38312;SDS011;24114;52.260;6.714;2023-01-29T09:52:56;29.95;;;25.02;;
38312;SDS011;24114;52.260;6.714;2023-01-29T09:55:26;29.23;;;23.92;;
38312;SDS011;24114;52.260;6.714;2023-01-29T09:57:56;28.25;;;23.55;;
38312;SDS011;24114;52.260;6.714;2023-01-29T10:00:28;29.13;;;23.98;;
38312;SDS011;24114;52.260;6.714;2023-01-29T10:03:04;29.27;;;25.33;;
38312;SDS011;24114;52.260;6.714;2023-01-29T10:05:41;29.95;;;25.17;;
38312;SDS011;24114;52.260;6.714;2023-01-29T10:08:23;30.20;;;25.10;;
38312;SDS011;24114;52.260;6.714;2023-01-29T10:10:58;30.23;;;25.17;;
38312;SDS011;24114;52.260;6.714;2023-01-29T10:13:32;27.65;;;22.95;;
38312;SDS011;24114;52.260;6.714;2023-01-29T10:16:11;29.00;;;23.90;;
38312;SDS011;24114;52.260;6.714;2023-01-29T10:21:45;29.45;;;23.90;;
38312;SDS011;24114;52.260;6.714;2023-01-29T10:24:23;27.95;;;23.30;;
38312;SDS011;24114;52.260;6.714;2023-01-29T10:26:52;30.63;;;23.97;;
38312;SDS011;24114;52.260;6.714;2023-01-29T10:29:22;29.58;;;24.52;;
38312;SDS011;24114;52.260;6.714;2023-01-29T10:31:52;28.90;;;24.17;;
38312;SDS011;24114;52.260;6.714;2023-01-29T10:34:23;30.00;;;24.07;;
38312;SDS011;24114;52.260;6.714;2023-01-29T10:36:55;27.52;;;23.85;;
38312;SDS011;24114;52.260;6.714;2023-01-29T10:39:23;28.73;;;24.67;;
38312;SDS011;24114;52.260;6.714;2023-01-29T10:41:56;30.95;;;24.38;;
38312;SDS011;24114;52.260;6.714;2023-01-29T10:44:32;28.60;;;23.98;;
38312;SDS011;24114;52.260;6.714;2023-01-29T10:50:08;28.57;;;24.77;;
38312;SDS011;24114;52.260;6.714;2023-01-29T10:52:45;31.63;;;27.80;;
38312;SDS011;24114;52.260;6.714;2023-01-29T10:55:27;28.98;;;23.92;;
38312;SDS011;24114;52.260;6.714;2023-01-29T10:58:03;30.35;;;24.92;;
38312;SDS011;24114;52.260;6.714;2023-01-29T11:00:34;26.67;;;23.08;;
38312;SDS011;24114;52.260;6.714;2023-01-29T11:03:10;26.47;;;22.77;;
38312;SDS011;24114;52.260;6.714;2023-01-29T11:05:54;27.95;;;22.88;;
38312;SDS011;24114;52.260;6.714;2023-01-29T11:08:25;28.27;;;24.02;;
38312;SDS011;24114;52.260;6.714;2023-01-29T11:10:58;27.45;;;24.42;;
38312;SDS011;24114;52.260;6.714;2023-01-29T11:13:30;30.65;;;27.42;;
38312;SDS011;24114;52.260;6.714;2023-01-29T11:15:59;30.33;;;24.75;;
38312;SDS011;24114;52.260;6.714;2023-01-29T11:18:28;28.35;;;23.80;;
38312;SDS011;24114;52.260;6.714;2023-01-29T11:21:15;27.63;;;24.50;;
38312;SDS011;24114;52.260;6.714;2023-01-29T11:23:43;28.75;;;24.15;;
38312;SDS011;24114;52.260;6.714;2023-01-29T11:26:12;27.13;;;23.63;;
38312;SDS011;24114;52.260;6.714;2023-01-29T11:28:42;29.75;;;24.95;;
38312;SDS011;24114;52.260;6.714;2023-01-29T11:31:17;28.35;;;23.38;;
38312;SDS011;24114;52.260;6.714;2023-01-29T11:33:48;27.50;;;23.33;;
38312;SDS011;24114;52.260;6.714;2023-01-29T11:36:21;26.85;;;23.23;;
38312;SDS011;24114;52.260;6.714;2023-01-29T11:39:14;25.45;;;22.73;;
38312;SDS011;24114;52.260;6.714;2023-01-29T11:41:46;26.35;;;22.70;;
38312;SDS011;24114;52.260;6.714;2023-01-29T11:44:16;25.23;;;22.53;;
38312;SDS011;24114;52.260;6.714;2023-01-29T11:46:45;26.77;;;22.63;;
38312;SDS011;24114;52.260;6.714;2023-01-29T11:52:07;25.40;;;21.85;;
38312;SDS011;24114;52.260;6.714;2023-01-29T11:54:36;25.17;;;21.75;;
38312;SDS011;24114;52.260;6.714;2023-01-29T11:57:05;24.77;;;21.63;;
38312;SDS011;24114;52.260;6.714;2023-01-29T11:59:51;25.55;;;22.15;;
38312;SDS011;24114;52.260;6.714;2023-01-29T12:02:22;24.73;;;21.75;;
38312;SDS011;24114;52.260;6.714;2023-01-29T12:04:54;25.15;;;22.40;;
38312;SDS011;24114;52.260;6.714;2023-01-29T12:07:23;25.73;;;22.38;;
38312;SDS011;24114;52.260;6.714;2023-01-29T12:09:52;26.73;;;23.50;;
38312;SDS011;24114;52.260;6.714;2023-01-29T12:12:35;29.53;;;25.83;;
38312;SDS011;24114;52.260;6.714;2023-01-29T12:15:14;26.98;;;24.05;;
38312;SDS011;24114;52.260;6.714;2023-01-29T12:17:50;26.83;;;23.92;;
38312;SDS011;24114;52.260;6.714;2023-01-29T12:20:27;30.15;;;26.95;;
38312;SDS011;24114;52.260;6.714;2023-01-29T12:23:00;29.75;;;26.63;;
38312;SDS011;24114;52.260;6.714;2023-01-29T12:25:36;28.37;;;25.23;;
38312;SDS011;24114;52.260;6.714;2023-01-29T12:28:09;25.67;;;22.92;;
38312;SDS011;24114;52.260;6.714;2023-01-29T12:30:47;25.73;;;22.90;;
38312;SDS011;24114;52.260;6.714;2023-01-29T12:33:23;25.52;;;22.33;;
38312;SDS011;24114;52.260;6.714;2023-01-29T12:35:57;26.37;;;23.47;;
38312;SDS011;24114;52.260;6.714;2023-01-29T12:38:28;26.42;;;22.83;;
38312;SDS011;24114;52.260;6.714;2023-01-29T12:40:57;25.35;;;21.95;;
38312;SDS011;24114;52.260;6.714;2023-01-29T12:43:28;25.73;;;22.92;;
38312;SDS011;24114;52.260;6.714;2023-01-29T12:45:58;26.00;;;22.75;;
38312;SDS011;24114;52.260;6.714;2023-01-29T12:48:30;26.20;;;23.35;;
38312;SDS011;24114;52.260;6.714;2023-01-29T12:51:02;25.60;;;22.42;;
38312;SDS011;24114;52.260;6.714;2023-01-29T12:53:33;26.45;;;23.65;;
38312;SDS011;24114;52.260;6.714;2023-01-29T12:56:04;25.75;;;22.95;;
38312;SDS011;24114;52.260;6.714;2023-01-29T12:58:36;25.67;;;22.90;;
38312;SDS011;24114;52.260;6.714;2023-01-29T13:01:11;28.00;;;24.30;;
38312;SDS011;24114;52.260;6.714;2023-01-29T13:03:44;31.13;;;26.17;;
38312;SDS011;24114;52.260;6.714;2023-01-29T13:06:17;27.95;;;24.95;;
38312;SDS011;24114;52.260;6.714;2023-01-29T13:08:48;27.23;;;24.42;;
38312;SDS011;24114;52.260;6.714;2023-01-29T13:11:20;26.53;;;23.70;;
38312;SDS011;24114;52.260;6.714;2023-01-29T13:13:50;27.90;;;24.90;;
38312;SDS011;24114;52.260;6.714;2023-01-29T13:16:20;29.58;;;26.38;;
38312;SDS011;24114;52.260;6.714;2023-01-29T13:20:44;27.52;;;24.65;;
38312;SDS011;24114;52.260;6.714;2023-01-29T13:23:32;29.75;;;26.55;;
38312;SDS011;24114;52.260;6.714;2023-01-29T13:26:02;30.70;;;27.40;;
38312;SDS011;24114;52.260;6.714;2023-01-29T13:30:39;33.28;;;29.88;;
38312;SDS011;24114;52.260;6.714;2023-01-29T13:33:06;31.48;;;28.10;;
38312;SDS011;24114;52.260;6.714;2023-01-29T13:35:37;32.15;;;28.75;;
38312;SDS011;24114;52.260;6.714;2023-01-29T13:38:05;29.95;;;26.85;;
38312;SDS011;24114;52.260;6.714;2023-01-29T13:40:49;31.52;;;28.23;;
38312;SDS011;24114;52.260;6.714;2023-01-29T13:43:18;31.87;;;28.47;;
38312;SDS011;24114;52.260;6.714;2023-01-29T13:45:48;29.85;;;26.67;;
38312;SDS011;24114;52.260;6.714;2023-01-29T13:48:18;31.17;;;27.50;;
38312;SDS011;24114;52.260;6.714;2023-01-29T13:50:48;33.30;;;29.80;;
38312;SDS011;24114;52.260;6.714;2023-01-29T13:53:19;30.92;;;27.70;;
38312;SDS011;24114;52.260;6.714;2023-01-29T13:55:48;30.57;;;27.33;;
38312;SDS011;24114;52.260;6.714;2023-01-29T13:58:16;34.30;;;30.52;;
38312;SDS011;24114;52.260;6.714;2023-01-29T14:00:49;33.25;;;29.65;;
38312;SDS011;24114;52.260;6.714;2023-01-29T14:06:44;33.83;;;30.23;;
38312;SDS011;24114;52.260;6.714;2023-01-29T14:12:39;33.70;;;30.15;;
38312;SDS011;24114;52.260;6.714;2023-01-29T14:18:01;34.03;;;30.33;;
38312;SDS011;24114;52.260;6.714;2023-01-29T14:20:54;36.38;;;32.38;;
38312;SDS011;24114;52.260;6.714;2023-01-29T14:23:29;35.70;;;31.93;;
38312;SDS011;24114;52.260;6.714;2023-01-29T14:26:24;36.72;;;31.95;;
38312;SDS011;24114;52.260;6.714;2023-01-29T14:28:59;36.38;;;32.08;;
38312;SDS011;24114;52.260;6.714;2023-01-29T14:31:30;36.35;;;32.40;;
38312;SDS011;24114;52.260;6.714;2023-01-29T14:34:05;35.75;;;31.85;;
38312;SDS011;24114;52.260;6.714;2023-01-29T14:36:40;36.42;;;32.55;;
38312;SDS011;24114;52.260;6.714;2023-01-29T14:39:18;34.72;;;31.08;;
38312;SDS011;24114;52.260;6.714;2023-01-29T14:41:48;34.42;;;30.80;;
38312;SDS011;24114;52.260;6.714;2023-01-29T14:56:23;36.85;;;32.63;;
38312;SDS011;24114;52.260;6.714;2023-01-29T14:58:55;37.00;;;33.00;;
38312;SDS011;24114;52.260;6.714;2023-01-29T15:01:37;35.47;;;31.33;;
38312;SDS011;24114;52.260;6.714;2023-01-29T15:04:06;36.60;;;32.65;;
38312;SDS011;24114;52.260;6.714;2023-01-29T15:06:43;35.20;;;31.38;;
38312;SDS011;24114;52.260;6.714;2023-01-29T15:09:12;36.75;;;32.83;;
38312;SDS011;24114;52.260;6.714;2023-01-29T15:11:46;36.67;;;32.77;;
38312;SDS011;24114;52.260;6.714;2023-01-29T15:14:18;37.08;;;33.10;;
38312;SDS011;24114;52.260;6.714;2023-01-29T15:16:52;37.22;;;33.15;;
38312;SDS011;24114;52.260;6.714;2023-01-29T15:19:24;36.75;;;32.83;;
38312;SDS011;24114;52.260;6.714;2023-01-29T15:22:03;37.53;;;33.45;;